sensor_id;sensor_type;location;lat;lon;timestamp;P1;durP1;ratioP1;P2;durP2;ratioP2
12631;SDS011;6381;45.748;12.106;2023-05-07T00:00:22;6.05;;;5.47;;
12631;SDS011;6381;45.748;12.106;2023-05-07T00:02:52;5.93;;;5.43;;
12631;SDS011;6381;45.748;12.106;2023-05-07T00:05:21;6.53;;;5.80;;
12631;SDS011;6381;45.748;12.106;2023-05-07T00:07:51;5.25;;;4.75;;
12631;SDS011;6381;45.748;12.106;2023-05-07T00:10:25;4.78;;;4.38;;
12631;SDS011;6381;45.748;12.106;2023-05-07T00:12:55;5.93;;;5.43;;
12631;SDS011;6381;45.748;12.106;2023-05-07T00:15:25;5.35;;;4.95;;
12631;SDS011;6381;45.748;12.106;2023-05-07T00:17:55;6.03;;;5.40;;
12631;SDS011;6381;45.748;12.106;2023-05-07T00:20:26;6.20;;;5.70;;
12631;SDS011;6381;45.748;12.106;2023-05-07T00:22:56;6.00;;;5.50;;
12631;SDS011;6381;45.748;12.106;2023-05-07T00:25:27;5.65;;;5.15;;
12631;SDS011;6381;45.748;12.106;2023-05-07T00:27:57;6.15;;;5.60;;
12631;SDS011;6381;45.748;12.106;2023-05-07T00:30:31;6.05;;;5.45;;
12631;SDS011;6381;45.748;12.106;2023-05-07T00:33:01;6.68;;;5.80;;
12631;SDS011;6381;45.748;12.106;2023-05-07T00:35:30;6.25;;;5.57;;
12631;SDS011;6381;45.748;12.106;2023-05-07T00:38:00;6.22;;;5.72;;
12631;SDS011;6381;45.748;12.106;2023-05-07T00:40:32;6.70;;;6.10;;
12631;SDS011;6381;45.748;12.106;2023-05-07T00:43:02;5.88;;;5.38;;
12631;SDS011;6381;45.748;12.106;2023-05-07T00:45:32;6.32;;;5.82;;
12631;SDS011;6381;45.748;12.106;2023-05-07T00:48:02;6.07;;;5.57;;
12631;SDS011;6381;45.748;12.106;2023-05-07T00:50:32;6.80;;;6.10;;
12631;SDS011;6381;45.748;12.106;2023-05-07T00:53:02;6.13;;;5.63;;
12631;SDS011;6381;45.748;12.106;2023-05-07T00:55:34;6.40;;;5.88;;
12631;SDS011;6381;45.748;12.106;2023-05-07T00:58:05;6.75;;;6.03;;
12631;SDS011;6381;45.748;12.106;2023-05-07T01:00:35;7.22;;;6.63;;
12631;SDS011;6381;45.748;12.106;2023-05-07T01:03:05;6.82;;;6.28;;
12631;SDS011;6381;45.748;12.106;2023-05-07T01:05:35;6.97;;;6.28;;
12631;SDS011;6381;45.748;12.106;2023-05-07T01:08:06;7.47;;;6.78;;
12631;SDS011;6381;45.748;12.106;2023-05-07T01:10:38;7.30;;;6.60;;
12631;SDS011;6381;45.748;12.106;2023-05-07T01:13:10;7.05;;;6.55;;
12631;SDS011;6381;45.748;12.106;2023-05-07T01:15:41;7.07;;;6.38;;
12631;SDS011;6381;45.748;12.106;2023-05-07T01:18:12;7.72;;;6.85;;
12631;SDS011;6381;45.748;12.106;2023-05-07T01:20:43;7.63;;;6.95;;
12631;SDS011;6381;45.748;12.106;2023-05-07T01:23:15;7.50;;;6.68;;
12631;SDS011;6381;45.748;12.106;2023-05-07T01:25:50;7.60;;;6.90;;
12631;SDS011;6381;45.748;12.106;2023-05-07T01:28:23;8.00;;;7.28;;
12631;SDS011;6381;45.748;12.106;2023-05-07T01:30:58;8.23;;;7.50;;
12631;SDS011;6381;45.748;12.106;2023-05-07T01:33:33;8.50;;;7.63;;
12631;SDS011;6381;45.748;12.106;2023-05-07T01:36:05;7.78;;;7.13;;
12631;SDS011;6381;45.748;12.106;2023-05-07T01:38:39;8.10;;;7.30;;
12631;SDS011;6381;45.748;12.106;2023-05-07T01:41:10;7.80;;;6.97;;
12631;SDS011;6381;45.748;12.106;2023-05-07T01:43:41;7.90;;;7.20;;
12631;SDS011;6381;45.748;12.106;2023-05-07T01:46:12;7.55;;;6.93;;
12631;SDS011;6381;45.748;12.106;2023-05-07T01:48:43;8.05;;;7.18;;
12631;SDS011;6381;45.748;12.106;2023-05-07T01:51:14;7.90;;;6.97;;
12631;SDS011;6381;45.748;12.106;2023-05-07T01:53:46;7.65;;;6.90;;
12631;SDS011;6381;45.748;12.106;2023-05-07T01:56:19;7.40;;;6.80;;
12631;SDS011;6381;45.748;12.106;2023-05-07T01:58:49;8.40;;;7.30;;
12631;SDS011;6381;45.748;12.106;2023-05-07T02:01:19;8.15;;;7.35;;
12631;SDS011;6381;45.748;12.106;2023-05-07T02:03:51;8.30;;;7.03;;
12631;SDS011;6381;45.748;12.106;2023-05-07T02:06:24;9.00;;;7.63;;
12631;SDS011;6381;45.748;12.106;2023-05-07T02:09:02;7.95;;;6.75;;
12631;SDS011;6381;45.748;12.106;2023-05-07T02:11:32;7.93;;;7.13;;
12631;SDS011;6381;45.748;12.106;2023-05-07T02:14:02;7.95;;;7.25;;
12631;SDS011;6381;45.748;12.106;2023-05-07T02:16:31;7.82;;;7.13;;
12631;SDS011;6381;45.748;12.106;2023-05-07T02:19:02;7.60;;;6.90;;
12631;SDS011;6381;45.748;12.106;2023-05-07T02:21:32;8.02;;;7.22;;
12631;SDS011;6381;45.748;12.106;2023-05-07T02:24:03;7.72;;;7.13;;
12631;SDS011;6381;45.748;12.106;2023-05-07T02:26:34;8.02;;;7.22;;
12631;SDS011;6381;45.748;12.106;2023-05-07T02:29:04;8.35;;;7.50;;
12631;SDS011;6381;45.748;12.106;2023-05-07T02:31:34;8.10;;;7.35;;
12631;SDS011;6381;45.748;12.106;2023-05-07T02:34:04;7.40;;;6.65;;
12631;SDS011;6381;45.748;12.106;2023-05-07T02:36:34;10.05;;;7.25;;
12631;SDS011;6381;45.748;12.106;2023-05-07T02:39:10;7.43;;;6.82;;
12631;SDS011;6381;45.748;12.106;2023-05-07T02:41:40;8.05;;;7.30;;
12631;SDS011;6381;45.748;12.106;2023-05-07T02:44:10;10.80;;;9.75;;
12631;SDS011;6381;45.748;12.106;2023-05-07T02:46:40;10.00;;;9.10;;
12631;SDS011;6381;45.748;12.106;2023-05-07T02:49:12;8.93;;;8.07;;
12631;SDS011;6381;45.748;12.106;2023-05-07T02:51:42;7.85;;;6.90;;
12631;SDS011;6381;45.748;12.106;2023-05-07T02:54:20;8.85;;;7.20;;
12631;SDS011;6381;45.748;12.106;2023-05-07T02:56:50;7.30;;;6.60;;
12631;SDS011;6381;45.748;12.106;2023-05-07T02:59:20;7.25;;;6.55;;
12631;SDS011;6381;45.748;12.106;2023-05-07T03:01:50;6.30;;;5.80;;
12631;SDS011;6381;45.748;12.106;2023-05-07T03:04:20;6.28;;;5.78;;
12631;SDS011;6381;45.748;12.106;2023-05-07T03:06:51;6.40;;;5.90;;
12631;SDS011;6381;45.748;12.106;2023-05-07T03:09:23;6.65;;;6.00;;
12631;SDS011;6381;45.748;12.106;2023-05-07T03:11:53;6.75;;;6.10;;
12631;SDS011;6381;45.748;12.106;2023-05-07T03:14:22;6.95;;;5.80;;
12631;SDS011;6381;45.748;12.106;2023-05-07T03:16:54;6.65;;;6.15;;
12631;SDS011;6381;45.748;12.106;2023-05-07T03:19:24;7.22;;;6.57;;
12631;SDS011;6381;45.748;12.106;2023-05-07T03:21:54;6.50;;;6.00;;
12631;SDS011;6381;45.748;12.106;2023-05-07T03:24:26;7.03;;;6.40;;
12631;SDS011;6381;45.748;12.106;2023-05-07T03:26:58;6.93;;;6.22;;
12631;SDS011;6381;45.748;12.106;2023-05-07T03:29:28;7.68;;;6.97;;
12631;SDS011;6381;45.748;12.106;2023-05-07T03:31:58;6.70;;;6.00;;
12631;SDS011;6381;45.748;12.106;2023-05-07T03:34:28;6.63;;;6.03;;
12631;SDS011;6381;45.748;12.106;2023-05-07T03:36:59;6.53;;;6.00;;
12631;SDS011;6381;45.748;12.106;2023-05-07T03:39:30;6.25;;;5.75;;
12631;SDS011;6381;45.748;12.106;2023-05-07T03:42:00;6.05;;;5.55;;
12631;SDS011;6381;45.748;12.106;2023-05-07T03:44:32;6.47;;;5.88;;
12631;SDS011;6381;45.748;12.106;2023-05-07T03:47:03;6.50;;;5.90;;
12631;SDS011;6381;45.748;12.106;2023-05-07T03:49:34;6.88;;;6.18;;
12631;SDS011;6381;45.748;12.106;2023-05-07T03:52:05;6.95;;;6.05;;
12631;SDS011;6381;45.748;12.106;2023-05-07T03:54:37;6.80;;;6.00;;
12631;SDS011;6381;45.748;12.106;2023-05-07T03:57:11;6.60;;;6.00;;
12631;SDS011;6381;45.748;12.106;2023-05-07T03:59:40;6.18;;;5.65;;
12631;SDS011;6381;45.748;12.106;2023-05-07T04:02:13;6.18;;;5.60;;
12631;SDS011;6381;45.748;12.106;2023-05-07T04:04:43;6.15;;;5.47;;
12631;SDS011;6381;45.748;12.106;2023-05-07T04:07:14;5.85;;;5.35;;
12631;SDS011;6381;45.748;12.106;2023-05-07T04:09:50;7.53;;;5.97;;
12631;SDS011;6381;45.748;12.106;2023-05-07T04:12:20;11.00;;;5.93;;
12631;SDS011;6381;45.748;12.106;2023-05-07T04:14:50;6.22;;;5.68;;
12631;SDS011;6381;45.748;12.106;2023-05-07T04:17:22;6.88;;;5.88;;
12631;SDS011;6381;45.748;12.106;2023-05-07T04:19:51;6.25;;;5.65;;
12631;SDS011;6381;45.748;12.106;2023-05-07T04:22:21;5.60;;;5.20;;
12631;SDS011;6381;45.748;12.106;2023-05-07T04:24:53;6.63;;;6.03;;
12631;SDS011;6381;45.748;12.106;2023-05-07T04:27:24;6.63;;;5.90;;
12631;SDS011;6381;45.748;12.106;2023-05-07T04:29:56;8.23;;;6.45;;
12631;SDS011;6381;45.748;12.106;2023-05-07T04:32:26;6.10;;;5.60;;
12631;SDS011;6381;45.748;12.106;2023-05-07T04:34:56;6.43;;;5.82;;
12631;SDS011;6381;45.748;12.106;2023-05-07T04:37:26;6.40;;;5.80;;
12631;SDS011;6381;45.748;12.106;2023-05-07T04:40:01;6.53;;;5.93;;
12631;SDS011;6381;45.748;12.106;2023-05-07T04:42:32;6.32;;;5.72;;
12631;SDS011;6381;45.748;12.106;2023-05-07T04:45:03;5.85;;;5.28;;
12631;SDS011;6381;45.748;12.106;2023-05-07T04:47:34;6.40;;;5.80;;
12631;SDS011;6381;45.748;12.106;2023-05-07T04:50:05;6.47;;;5.88;;
12631;SDS011;6381;45.748;12.106;2023-05-07T04:52:37;8.68;;;7.78;;
12631;SDS011;6381;45.748;12.106;2023-05-07T04:55:09;9.75;;;8.75;;
12631;SDS011;6381;45.748;12.106;2023-05-07T04:57:40;9.45;;;8.38;;
12631;SDS011;6381;45.748;12.106;2023-05-07T05:00:13;9.18;;;7.90;;
12631;SDS011;6381;45.748;12.106;2023-05-07T05:02:44;6.53;;;5.88;;
12631;SDS011;6381;45.748;12.106;2023-05-07T05:05:19;7.22;;;6.53;;
12631;SDS011;6381;45.748;12.106;2023-05-07T05:07:51;8.30;;;7.45;;
12631;SDS011;6381;45.748;12.106;2023-05-07T05:10:23;7.65;;;6.88;;
12631;SDS011;6381;45.748;12.106;2023-05-07T05:12:54;8.77;;;6.05;;
12631;SDS011;6381;45.748;12.106;2023-05-07T05:15:25;6.18;;;5.57;;
12631;SDS011;6381;45.748;12.106;2023-05-07T05:17:57;6.72;;;6.00;;
12631;SDS011;6381;45.748;12.106;2023-05-07T05:20:27;7.78;;;6.05;;
12631;SDS011;6381;45.748;12.106;2023-05-07T05:22:57;6.88;;;6.25;;
12631;SDS011;6381;45.748;12.106;2023-05-07T05:25:30;7.55;;;6.72;;
12631;SDS011;6381;45.748;12.106;2023-05-07T05:28:00;7.35;;;6.65;;
12631;SDS011;6381;45.748;12.106;2023-05-07T05:30:33;7.18;;;6.47;;
12631;SDS011;6381;45.748;12.106;2023-05-07T05:33:03;6.93;;;6.15;;
12631;SDS011;6381;45.748;12.106;2023-05-07T05:35:33;7.07;;;6.43;;
12631;SDS011;6381;45.748;12.106;2023-05-07T05:38:06;6.50;;;5.90;;
12631;SDS011;6381;45.748;12.106;2023-05-07T05:40:39;7.32;;;6.15;;
12631;SDS011;6381;45.748;12.106;2023-05-07T05:43:09;6.43;;;5.82;;
12631;SDS011;6381;45.748;12.106;2023-05-07T05:45:39;6.90;;;5.97;;
12631;SDS011;6381;45.748;12.106;2023-05-07T05:48:09;6.57;;;6.00;;
12631;SDS011;6381;45.748;12.106;2023-05-07T05:50:39;6.47;;;5.88;;
12631;SDS011;6381;45.748;12.106;2023-05-07T05:53:11;7.53;;;6.65;;
12631;SDS011;6381;45.748;12.106;2023-05-07T05:55:43;6.25;;;5.65;;
12631;SDS011;6381;45.748;12.106;2023-05-07T05:58:13;6.53;;;6.00;;
12631;SDS011;6381;45.748;12.106;2023-05-07T06:00:50;7.15;;;6.55;;
12631;SDS011;6381;45.748;12.106;2023-05-07T06:03:23;9.50;;;6.20;;
12631;SDS011;6381;45.748;12.106;2023-05-07T06:05:55;6.90;;;6.30;;
12631;SDS011;6381;45.748;12.106;2023-05-07T06:08:25;6.95;;;5.80;;
12631;SDS011;6381;45.748;12.106;2023-05-07T06:11:01;6.82;;;6.15;;
12631;SDS011;6381;45.748;12.106;2023-05-07T06:13:35;11.88;;;5.93;;
12631;SDS011;6381;45.748;12.106;2023-05-07T06:16:06;6.50;;;5.90;;
12631;SDS011;6381;45.748;12.106;2023-05-07T06:18:36;6.90;;;5.47;;
12631;SDS011;6381;45.748;12.106;2023-05-07T06:21:06;5.75;;;5.25;;
12631;SDS011;6381;45.748;12.106;2023-05-07T06:23:37;5.57;;;5.07;;
12631;SDS011;6381;45.748;12.106;2023-05-07T06:26:09;7.80;;;5.18;;
12631;SDS011;6381;45.748;12.106;2023-05-07T06:28:42;5.63;;;5.13;;
12631;SDS011;6381;45.748;12.106;2023-05-07T06:31:14;5.57;;;5.05;;
12631;SDS011;6381;45.748;12.106;2023-05-07T06:33:50;5.03;;;4.53;;
12631;SDS011;6381;45.748;12.106;2023-05-07T06:36:23;6.45;;;5.20;;
12631;SDS011;6381;45.748;12.106;2023-05-07T06:38:56;5.32;;;4.53;;
12631;SDS011;6381;45.748;12.106;2023-05-07T06:41:28;5.10;;;4.68;;
12631;SDS011;6381;45.748;12.106;2023-05-07T06:44:05;4.95;;;4.47;;
12631;SDS011;6381;45.748;12.106;2023-05-07T06:46:46;4.97;;;4.50;;
12631;SDS011;6381;45.748;12.106;2023-05-07T06:49:16;4.53;;;4.10;;
12631;SDS011;6381;45.748;12.106;2023-05-07T06:51:48;4.63;;;4.22;;
12631;SDS011;6381;45.748;12.106;2023-05-07T06:54:18;4.95;;;4.50;;
12631;SDS011;6381;45.748;12.106;2023-05-07T06:56:52;5.82;;;4.93;;
12631;SDS011;6381;45.748;12.106;2023-05-07T06:59:24;4.90;;;4.40;;
12631;SDS011;6381;45.748;12.106;2023-05-07T07:01:54;4.65;;;4.25;;
12631;SDS011;6381;45.748;12.106;2023-05-07T07:04:25;6.07;;;4.40;;
12631;SDS011;6381;45.748;12.106;2023-05-07T07:07:03;4.60;;;4.20;;
12631;SDS011;6381;45.748;12.106;2023-05-07T07:09:34;5.63;;;4.60;;
12631;SDS011;6381;45.748;12.106;2023-05-07T07:12:08;4.43;;;4.03;;
12631;SDS011;6381;45.748;12.106;2023-05-07T07:14:39;5.03;;;4.53;;
12631;SDS011;6381;45.748;12.106;2023-05-07T07:17:09;5.18;;;4.78;;
12631;SDS011;6381;45.748;12.106;2023-05-07T07:19:39;5.13;;;4.72;;
12631;SDS011;6381;45.748;12.106;2023-05-07T07:22:09;4.80;;;4.40;;
12631;SDS011;6381;45.748;12.106;2023-05-07T07:24:40;4.80;;;4.40;;
12631;SDS011;6381;45.748;12.106;2023-05-07T07:27:13;6.07;;;4.60;;
12631;SDS011;6381;45.748;12.106;2023-05-07T07:29:43;4.53;;;4.13;;
12631;SDS011;6381;45.748;12.106;2023-05-07T07:32:13;4.57;;;3.88;;
12631;SDS011;6381;45.748;12.106;2023-05-07T07:34:44;4.35;;;3.95;;
12631;SDS011;6381;45.748;12.106;2023-05-07T07:37:14;4.40;;;4.00;;
12631;SDS011;6381;45.748;12.106;2023-05-07T07:39:44;4.75;;;4.25;;
12631;SDS011;6381;45.748;12.106;2023-05-07T07:42:15;5.00;;;4.60;;
12631;SDS011;6381;45.748;12.106;2023-05-07T07:44:46;4.45;;;4.05;;
12631;SDS011;6381;45.748;12.106;2023-05-07T07:47:18;4.75;;;4.22;;
12631;SDS011;6381;45.748;12.106;2023-05-07T07:49:51;6.43;;;4.90;;
12631;SDS011;6381;45.748;12.106;2023-05-07T07:52:23;4.97;;;4.00;;
12631;SDS011;6381;45.748;12.106;2023-05-07T07:54:53;4.53;;;4.13;;
12631;SDS011;6381;45.748;12.106;2023-05-07T07:57:24;4.93;;;4.47;;
12631;SDS011;6381;45.748;12.106;2023-05-07T07:59:55;6.50;;;4.00;;
12631;SDS011;6381;45.748;12.106;2023-05-07T08:02:25;5.25;;;3.97;;
12631;SDS011;6381;45.748;12.106;2023-05-07T08:04:58;10.48;;;4.35;;
12631;SDS011;6381;45.748;12.106;2023-05-07T08:07:28;4.72;;;3.95;;
12631;SDS011;6381;45.748;12.106;2023-05-07T08:09:59;6.18;;;4.45;;
12631;SDS011;6381;45.748;12.106;2023-05-07T08:12:31;4.53;;;4.13;;
12631;SDS011;6381;45.748;12.106;2023-05-07T08:15:02;5.82;;;5.22;;
12631;SDS011;6381;45.748;12.106;2023-05-07T08:17:33;5.57;;;5.00;;
12631;SDS011;6381;45.748;12.106;2023-05-07T08:20:04;5.40;;;4.90;;
12631;SDS011;6381;45.748;12.106;2023-05-07T08:22:36;5.75;;;4.90;;
12631;SDS011;6381;45.748;12.106;2023-05-07T08:25:08;6.10;;;5.60;;
12631;SDS011;6381;45.748;12.106;2023-05-07T08:27:40;5.93;;;4.85;;
12631;SDS011;6381;45.748;12.106;2023-05-07T08:30:10;5.50;;;5.00;;
12631;SDS011;6381;45.748;12.106;2023-05-07T08:32:42;4.82;;;4.30;;
12631;SDS011;6381;45.748;12.106;2023-05-07T08:35:12;4.50;;;4.10;;
12631;SDS011;6381;45.748;12.106;2023-05-07T08:37:42;4.88;;;4.25;;
12631;SDS011;6381;45.748;12.106;2023-05-07T08:40:12;6.38;;;4.10;;
12631;SDS011;6381;45.748;12.106;2023-05-07T08:42:44;4.43;;;3.95;;
12631;SDS011;6381;45.748;12.106;2023-05-07T08:45:18;4.90;;;4.50;;
12631;SDS011;6381;45.748;12.106;2023-05-07T08:47:51;4.80;;;4.40;;
12631;SDS011;6381;45.748;12.106;2023-05-07T08:50:32;5.85;;;5.25;;
12631;SDS011;6381;45.748;12.106;2023-05-07T08:53:05;5.47;;;4.97;;
12631;SDS011;6381;45.748;12.106;2023-05-07T08:55:38;5.78;;;4.90;;
12631;SDS011;6381;45.748;12.106;2023-05-07T08:58:10;5.25;;;4.85;;
12631;SDS011;6381;45.748;12.106;2023-05-07T09:00:40;5.03;;;4.53;;
12631;SDS011;6381;45.748;12.106;2023-05-07T09:03:13;4.88;;;4.38;;
12631;SDS011;6381;45.748;12.106;2023-05-07T09:05:46;4.93;;;4.53;;
12631;SDS011;6381;45.748;12.106;2023-05-07T09:08:18;5.10;;;4.60;;
12631;SDS011;6381;45.748;12.106;2023-05-07T09:10:57;6.32;;;5.53;;
12631;SDS011;6381;45.748;12.106;2023-05-07T09:13:30;4.88;;;4.38;;
12631;SDS011;6381;45.748;12.106;2023-05-07T09:16:12;4.65;;;4.25;;
12631;SDS011;6381;45.748;12.106;2023-05-07T09:18:45;5.00;;;4.50;;
12631;SDS011;6381;45.748;12.106;2023-05-07T09:21:16;4.93;;;4.53;;
12631;SDS011;6381;45.748;12.106;2023-05-07T09:23:50;4.97;;;4.47;;
12631;SDS011;6381;45.748;12.106;2023-05-07T09:26:25;5.30;;;4.80;;
12631;SDS011;6381;45.748;12.106;2023-05-07T09:28:57;6.97;;;5.55;;
12631;SDS011;6381;45.748;12.106;2023-05-07T09:31:27;5.30;;;4.80;;
12631;SDS011;6381;45.748;12.106;2023-05-07T09:33:57;5.75;;;4.78;;
12631;SDS011;6381;45.748;12.106;2023-05-07T09:36:31;4.93;;;4.45;;
12631;SDS011;6381;45.748;12.106;2023-05-07T09:39:02;5.43;;;4.93;;
12631;SDS011;6381;45.748;12.106;2023-05-07T09:41:32;4.55;;;4.15;;
12631;SDS011;6381;45.748;12.106;2023-05-07T09:44:33;5.20;;;4.70;;
12631;SDS011;6381;45.748;12.106;2023-05-07T09:47:06;6.25;;;4.80;;
12631;SDS011;6381;45.748;12.106;2023-05-07T09:49:42;5.43;;;4.80;;
12631;SDS011;6381;45.748;12.106;2023-05-07T09:52:19;5.40;;;5.00;;
12631;SDS011;6381;45.748;12.106;2023-05-07T09:54:54;4.72;;;4.03;;
12631;SDS011;6381;45.748;12.106;2023-05-07T09:57:28;3.97;;;3.58;;
12631;SDS011;6381;45.748;12.106;2023-05-07T10:00:05;6.30;;;4.53;;
12631;SDS011;6381;45.748;12.106;2023-05-07T10:02:56;6.63;;;5.50;;
12631;SDS011;6381;45.748;12.106;2023-05-07T10:05:38;6.30;;;5.70;;
12631;SDS011;6381;45.748;12.106;2023-05-07T10:08:08;5.80;;;5.30;;
12631;SDS011;6381;45.748;12.106;2023-05-07T10:10:40;6.60;;;5.32;;
12631;SDS011;6381;45.748;12.106;2023-05-07T10:13:15;5.82;;;4.90;;
12631;SDS011;6381;45.748;12.106;2023-05-07T10:15:52;5.80;;;5.20;;
12631;SDS011;6381;45.748;12.106;2023-05-07T10:18:25;7.68;;;4.97;;
12631;SDS011;6381;45.748;12.106;2023-05-07T10:21:07;4.78;;;4.28;;
12631;SDS011;6381;45.748;12.106;2023-05-07T10:23:40;6.72;;;4.65;;
12631;SDS011;6381;45.748;12.106;2023-05-07T10:26:14;5.80;;;5.10;;
12631;SDS011;6381;45.748;12.106;2023-05-07T10:28:49;5.50;;;5.00;;
12631;SDS011;6381;45.748;12.106;2023-05-07T10:31:34;6.25;;;5.65;;
12631;SDS011;6381;45.748;12.106;2023-05-07T10:34:25;5.65;;;5.05;;
12631;SDS011;6381;45.748;12.106;2023-05-07T10:36:58;4.95;;;4.55;;
12631;SDS011;6381;45.748;12.106;2023-05-07T10:39:29;5.60;;;5.10;;
12631;SDS011;6381;45.748;12.106;2023-05-07T10:42:07;6.20;;;5.30;;
12631;SDS011;6381;45.748;12.106;2023-05-07T10:44:42;6.85;;;5.43;;
12631;SDS011;6381;45.748;12.106;2023-05-07T10:47:20;5.28;;;4.78;;
12631;SDS011;6381;45.748;12.106;2023-05-07T11:02:22;6.20;;;5.60;;
12631;SDS011;6381;45.748;12.106;2023-05-07T11:08:07;5.70;;;5.20;;
12631;SDS011;6381;45.748;12.106;2023-05-07T11:10:52;5.95;;;4.80;;
12631;SDS011;6381;45.748;12.106;2023-05-07T11:13:41;5.90;;;5.25;;
12631;SDS011;6381;45.748;12.106;2023-05-07T11:16:23;5.38;;;4.93;;
12631;SDS011;6381;45.748;12.106;2023-05-07T11:19:50;7.97;;;4.72;;
12631;SDS011;6381;45.748;12.106;2023-05-07T11:22:58;5.40;;;4.93;;
12631;SDS011;6381;45.748;12.106;2023-05-07T11:25:37;4.90;;;4.50;;
12631;SDS011;6381;45.748;12.106;2023-05-07T11:28:14;6.60;;;6.00;;
12631;SDS011;6381;45.748;12.106;2023-05-07T11:30:53;6.38;;;5.78;;
12631;SDS011;6381;45.748;12.106;2023-05-07T11:33:24;6.20;;;5.60;;
12631;SDS011;6381;45.748;12.106;2023-05-07T11:35:57;6.78;;;6.10;;
12631;SDS011;6381;45.748;12.106;2023-05-07T11:38:36;5.57;;;5.05;;
12631;SDS011;6381;45.748;12.106;2023-05-07T11:41:07;6.03;;;5.53;;
12631;SDS011;6381;45.748;12.106;2023-05-07T11:43:37;7.95;;;5.20;;
12631;SDS011;6381;45.748;12.106;2023-05-07T11:46:08;5.53;;;5.03;;
12631;SDS011;6381;45.748;12.106;2023-05-07T11:48:38;5.40;;;4.90;;
12631;SDS011;6381;45.748;12.106;2023-05-07T11:51:10;6.78;;;4.93;;
12631;SDS011;6381;45.748;12.106;2023-05-07T11:53:40;4.95;;;4.47;;
12631;SDS011;6381;45.748;12.106;2023-05-07T11:56:12;6.45;;;5.63;;
12631;SDS011;6381;45.748;12.106;2023-05-07T11:58:42;5.95;;;5.10;;
12631;SDS011;6381;45.748;12.106;2023-05-07T12:01:14;7.10;;;5.90;;
12631;SDS011;6381;45.748;12.106;2023-05-07T12:03:45;6.00;;;5.43;;
12631;SDS011;6381;45.748;12.106;2023-05-07T12:06:18;5.55;;;5.00;;
12631;SDS011;6381;45.748;12.106;2023-05-07T12:08:48;6.25;;;5.65;;
12631;SDS011;6381;45.748;12.106;2023-05-07T12:11:22;8.15;;;6.78;;
12631;SDS011;6381;45.748;12.106;2023-05-07T12:13:53;7.90;;;7.15;;
12631;SDS011;6381;45.748;12.106;2023-05-07T12:16:26;7.90;;;7.10;;
12631;SDS011;6381;45.748;12.106;2023-05-07T12:18:56;6.38;;;5.78;;
12631;SDS011;6381;45.748;12.106;2023-05-07T12:21:28;6.78;;;5.75;;
12631;SDS011;6381;45.748;12.106;2023-05-07T12:23:58;5.57;;;5.07;;
12631;SDS011;6381;45.748;12.106;2023-05-07T12:26:28;5.57;;;4.93;;
12631;SDS011;6381;45.748;12.106;2023-05-07T12:28:58;7.65;;;6.00;;
12631;SDS011;6381;45.748;12.106;2023-05-07T12:31:27;6.57;;;5.97;;
12631;SDS011;6381;45.748;12.106;2023-05-07T12:33:57;6.70;;;5.97;;
12631;SDS011;6381;45.748;12.106;2023-05-07T12:36:35;7.43;;;6.70;;
12631;SDS011;6381;45.748;12.106;2023-05-07T12:39:06;7.07;;;6.47;;
12631;SDS011;6381;45.748;12.106;2023-05-07T12:41:51;7.43;;;6.72;;
12631;SDS011;6381;45.748;12.106;2023-05-07T12:44:22;7.43;;;6.72;;
12631;SDS011;6381;45.748;12.106;2023-05-07T12:46:52;6.35;;;5.78;;
12631;SDS011;6381;45.748;12.106;2023-05-07T12:49:23;7.30;;;6.53;;
12631;SDS011;6381;45.748;12.106;2023-05-07T12:51:54;7.22;;;6.60;;
12631;SDS011;6381;45.748;12.106;2023-05-07T12:54:28;7.57;;;6.88;;
12631;SDS011;6381;45.748;12.106;2023-05-07T12:57:01;7.50;;;6.75;;
12631;SDS011;6381;45.748;12.106;2023-05-07T12:59:32;7.35;;;6.75;;
12631;SDS011;6381;45.748;12.106;2023-05-07T13:02:03;6.70;;;6.00;;
12631;SDS011;6381;45.748;12.106;2023-05-07T13:04:36;8.75;;;6.22;;
12631;SDS011;6381;45.748;12.106;2023-05-07T13:07:08;8.07;;;7.28;;
12631;SDS011;6381;45.748;12.106;2023-05-07T13:09:38;9.85;;;8.05;;
12631;SDS011;6381;45.748;12.106;2023-05-07T13:12:08;8.05;;;7.32;;
12631;SDS011;6381;45.748;12.106;2023-05-07T13:14:38;7.05;;;6.43;;
12631;SDS011;6381;45.748;12.106;2023-05-07T13:17:07;7.00;;;6.40;;
12631;SDS011;6381;45.748;12.106;2023-05-07T13:19:37;7.97;;;7.18;;
12631;SDS011;6381;45.748;12.106;2023-05-07T13:22:13;6.35;;;5.75;;
12631;SDS011;6381;45.748;12.106;2023-05-07T13:24:44;8.60;;;7.80;;
12631;SDS011;6381;45.748;12.106;2023-05-07T13:27:14;7.28;;;6.68;;
12631;SDS011;6381;45.748;12.106;2023-05-07T13:29:43;7.85;;;7.15;;
12631;SDS011;6381;45.748;12.106;2023-05-07T13:32:13;8.10;;;7.30;;
12631;SDS011;6381;45.748;12.106;2023-05-07T13:34:43;9.50;;;7.90;;
12631;SDS011;6381;45.748;12.106;2023-05-07T13:37:14;7.57;;;6.88;;
12631;SDS011;6381;45.748;12.106;2023-05-07T13:39:45;8.43;;;7.60;;
12631;SDS011;6381;45.748;12.106;2023-05-07T13:42:16;9.48;;;8.50;;
12631;SDS011;6381;45.748;12.106;2023-05-07T13:44:46;9.40;;;7.03;;
12631;SDS011;6381;45.748;12.106;2023-05-07T13:47:16;8.65;;;7.85;;
12631;SDS011;6381;45.748;12.106;2023-05-07T13:49:48;10.70;;;9.80;;
12631;SDS011;6381;45.748;12.106;2023-05-07T13:52:19;10.43;;;9.48;;
12631;SDS011;6381;45.748;12.106;2023-05-07T13:54:49;9.75;;;8.85;;
12631;SDS011;6381;45.748;12.106;2023-05-07T13:57:19;8.90;;;7.85;;
12631;SDS011;6381;45.748;12.106;2023-05-07T13:59:49;9.80;;;8.98;;
12631;SDS011;6381;45.748;12.106;2023-05-07T14:02:18;11.43;;;10.15;;
12631;SDS011;6381;45.748;12.106;2023-05-07T14:04:48;11.07;;;10.02;;
12631;SDS011;6381;45.748;12.106;2023-05-07T14:07:20;10.65;;;9.73;;
12631;SDS011;6381;45.748;12.106;2023-05-07T14:09:49;10.25;;;9.27;;
12631;SDS011;6381;45.748;12.106;2023-05-07T14:12:19;10.57;;;9.57;;
12631;SDS011;6381;45.748;12.106;2023-05-07T14:14:49;8.68;;;7.88;;
12631;SDS011;6381;45.748;12.106;2023-05-07T14:17:20;9.40;;;7.60;;
12631;SDS011;6381;45.748;12.106;2023-05-07T14:19:50;8.45;;;7.25;;
12631;SDS011;6381;45.748;12.106;2023-05-07T14:22:22;7.93;;;7.22;;
12631;SDS011;6381;45.748;12.106;2023-05-07T14:24:57;8.05;;;7.35;;
12631;SDS011;6381;45.748;12.106;2023-05-07T14:27:36;8.10;;;7.30;;
12631;SDS011;6381;45.748;12.106;2023-05-07T14:30:06;7.65;;;7.05;;
12631;SDS011;6381;45.748;12.106;2023-05-07T14:32:37;8.13;;;7.38;;
12631;SDS011;6381;45.748;12.106;2023-05-07T14:35:08;9.63;;;7.10;;
12631;SDS011;6381;45.748;12.106;2023-05-07T14:37:41;8.85;;;8.05;;
12631;SDS011;6381;45.748;12.106;2023-05-07T14:40:13;8.10;;;7.40;;
12631;SDS011;6381;45.748;12.106;2023-05-07T14:42:43;8.73;;;7.93;;
12631;SDS011;6381;45.748;12.106;2023-05-07T14:45:13;8.38;;;7.68;;
12631;SDS011;6381;45.748;12.106;2023-05-07T14:47:42;9.73;;;7.78;;
12631;SDS011;6381;45.748;12.106;2023-05-07T14:50:13;8.85;;;7.95;;
12631;SDS011;6381;45.748;12.106;2023-05-07T14:52:45;8.45;;;7.75;;
12631;SDS011;6381;45.748;12.106;2023-05-07T14:55:16;8.13;;;7.38;;
12631;SDS011;6381;45.748;12.106;2023-05-07T14:57:46;10.98;;;8.77;;
12631;SDS011;6381;45.748;12.106;2023-05-07T15:00:17;8.38;;;7.57;;
12631;SDS011;6381;45.748;12.106;2023-05-07T15:02:47;7.93;;;7.13;;
12631;SDS011;6381;45.748;12.106;2023-05-07T15:05:17;9.60;;;8.70;;
12631;SDS011;6381;45.748;12.106;2023-05-07T15:07:49;8.82;;;7.70;;
12631;SDS011;6381;45.748;12.106;2023-05-07T15:10:23;8.63;;;7.82;;
12631;SDS011;6381;45.748;12.106;2023-05-07T15:12:53;7.93;;;6.35;;
12631;SDS011;6381;45.748;12.106;2023-05-07T15:15:23;7.28;;;6.43;;
12631;SDS011;6381;45.748;12.106;2023-05-07T15:17:54;6.50;;;5.90;;
12631;SDS011;6381;45.748;12.106;2023-05-07T15:20:24;6.97;;;6.18;;
12631;SDS011;6381;45.748;12.106;2023-05-07T15:22:56;6.95;;;6.30;;
12631;SDS011;6381;45.748;12.106;2023-05-07T15:25:27;7.70;;;7.00;;
12631;SDS011;6381;45.748;12.106;2023-05-07T15:27:58;7.95;;;7.15;;
12631;SDS011;6381;45.748;12.106;2023-05-07T15:30:29;7.15;;;6.28;;
12631;SDS011;6381;45.748;12.106;2023-05-07T15:32:58;7.85;;;6.82;;